createdAt,value
2022-09-04T00:00:09.135Z,1.33
2022-09-04T00:05:20.160Z,1.48
2022-09-04T00:10:32.138Z,1.30
2022-09-04T00:15:40.401Z,1.33
2022-09-04T00:20:48.807Z,1.38
2022-09-04T00:26:01.054Z,1.45
2022-09-04T00:31:13.804Z,1.13
2022-09-04T00:36:19.403Z,1.67
2022-09-04T00:41:30.994Z,1.95
2022-09-04T00:47:09.519Z,1.42
2022-09-04T00:52:32.501Z,1.90
2022-09-04T00:58:05.415Z,3.40
2022-09-04T01:03:30.219Z,1.70
2022-09-04T01:08:46.659Z,1.73
2022-09-04T01:14:01.866Z,2.53
2022-09-04T01:19:15.239Z,1.02
2022-09-04T01:24:39.503Z,1.25
2022-09-04T01:29:53.981Z,2.38
2022-09-04T01:35:09.144Z,2.38
2022-09-04T01:40:35.336Z,1.45
2022-09-04T01:45:56.576Z,1.10
2022-09-04T01:51:07.012Z,1.00
2022-09-04T01:56:16.229Z,1.30
2022-09-04T02:01:28.638Z,1.45
2022-09-04T02:06:37.159Z,2.03
2022-09-04T02:11:48.697Z,1.33
2022-09-04T02:17:10.351Z,1.45
2022-09-04T02:22:24.066Z,2.50
2022-09-04T02:27:32.994Z,3.10
2022-09-04T02:32:43.650Z,1.67
2022-09-04T02:38:04.982Z,1.33
2022-09-04T02:43:22.951Z,1.30
2022-09-04T02:48:35.063Z,1.48
2022-09-04T02:53:46.642Z,1.85
2022-09-04T02:59:03.361Z,4.13
2022-09-04T03:04:14.950Z,1.92
2022-09-04T03:09:23.426Z,1.30
2022-09-04T03:14:34.420Z,2.83
2022-09-04T03:19:45.879Z,1.27
2022-09-04T03:25:06.173Z,2.47
2022-09-04T03:30:11.956Z,1.42
2022-09-04T03:35:25.787Z,2.25
2022-09-04T03:40:38.555Z,1.27
2022-09-04T03:45:50.885Z,1.33
2022-09-04T03:50:59.846Z,1.40
2022-09-04T03:56:47.600Z,1.00
2022-09-04T04:01:58.881Z,2.10
2022-09-04T04:07:13.847Z,1.55
2022-09-04T04:12:39.369Z,2.03
2022-09-04T04:18:18.361Z,1.20
2022-09-04T04:23:57.994Z,1.77
2022-09-04T04:29:20.171Z,1.10
2022-09-04T04:34:33.794Z,1.40
2022-09-04T04:39:45.630Z,1.48
2022-09-04T04:45:28.563Z,1.30
2022-09-04T04:50:43.080Z,2.17
2022-09-04T04:55:54.706Z,1.60
2022-09-04T05:01:07.038Z,1.10
2022-09-04T05:06:18.135Z,1.17
2022-09-04T05:11:31.290Z,1.75
2022-09-04T05:16:43.538Z,1.77
2022-09-04T05:21:54.685Z,2.67
2022-09-04T05:27:07.240Z,1.30
2022-09-04T05:32:20.079Z,1.30
2022-09-04T05:37:32.409Z,1.50
2022-09-04T05:42:45.531Z,1.33
2022-09-04T05:47:59.660Z,1.90
2022-09-04T05:53:30.340Z,1.80
2022-09-04T05:59:06.471Z,2.20
2022-09-04T06:04:39.068Z,1.40
2022-09-04T06:09:57.506Z,2.42
2022-09-04T06:15:28.379Z,3.65
2022-09-04T06:20:57.435Z,1.48
2022-09-04T06:26:13.111Z,1.02
2022-09-04T06:31:48.977Z,1.65
2022-09-04T06:37:05.427Z,1.63
2022-09-04T06:42:21.583Z,1.05
2022-09-04T06:47:35.922Z,1.92
2022-09-04T06:52:47.016Z,1.42
2022-09-04T06:58:17.259Z,2.13
2022-09-04T07:03:45.392Z,1.38
2022-09-04T07:09:04.475Z,1.60
2022-09-04T07:14:31.937Z,1.67
2022-09-04T07:20:03.080Z,1.50
2022-09-04T07:25:13.748Z,1.15
2022-09-04T07:30:20.048Z,1.10
2022-09-04T07:35:29.529Z,1.35
2022-09-04T07:40:38.453Z,1.48
2022-09-04T07:45:47.369Z,2.22
2022-09-04T07:51:10.579Z,2.72
2022-09-04T07:56:25.191Z,3.08
2022-09-04T08:01:52.023Z,3.58
2022-09-04T08:06:59.875Z,1.58
2022-09-04T08:12:33.686Z,2.38
2022-09-04T08:18:06.011Z,1.80
2022-09-04T08:23:35.498Z,1.95
2022-09-04T08:28:57.757Z,1.73
2022-09-04T08:34:46.200Z,1.95
2022-09-04T08:40:02.100Z,3.40
2022-09-04T08:45:42.175Z,2.00
2022-09-04T08:51:12.096Z,3.00
2022-09-04T08:56:27.420Z,2.00
2022-09-04T09:02:04.118Z,2.70
2022-09-04T09:07:34.143Z,2.72
2022-09-04T09:13:14.014Z,2.25
2022-09-04T09:18:37.119Z,2.00
2022-09-04T09:24:09.580Z,2.28
2022-09-04T09:29:58.767Z,2.70
2022-09-04T09:35:24.394Z,2.03
2022-09-04T09:41:06.460Z,2.47
2022-09-04T09:46:38.516Z,2.72
2022-09-04T09:52:16.800Z,2.90
2022-09-04T09:57:42.209Z,2.17
2022-09-04T10:03:35.814Z,2.30
2022-09-04T10:09:12.442Z,2.95
2022-09-04T10:14:53.679Z,2.42
2022-09-04T10:20:28.968Z,1.98
2022-09-04T10:26:04.716Z,2.33
2022-09-04T10:31:50.415Z,3.28
2022-09-04T10:37:10.451Z,2.58
2022-09-04T10:42:32.008Z,1.98
2022-09-04T10:48:08.372Z,1.77
2022-09-04T10:53:49.842Z,3.03
2022-09-04T10:59:13.073Z,1.73
2022-09-04T11:04:35.108Z,2.28
2022-09-04T11:10:14.560Z,2.00
2022-09-04T11:15:50.910Z,2.53
2022-09-04T11:21:31.137Z,1.83
2022-09-04T11:27:13.618Z,2.35
2022-09-04T11:32:43.031Z,2.03
2022-09-04T11:38:00.651Z,1.67
2022-09-04T11:43:23.656Z,3.45
2022-09-04T11:48:54.302Z,2.45
2022-09-04T11:54:21.802Z,1.75
2022-09-04T11:59:42.950Z,2.13
2022-09-04T12:05:10.692Z,1.73
2022-09-04T12:10:35.315Z,1.90
2022-09-04T12:16:06.932Z,1.60
2022-09-04T12:21:47.407Z,1.70
2022-09-04T12:27:22.627Z,2.22
2022-09-04T12:33:08.457Z,1.38
2022-09-04T12:38:36.048Z,1.33
2022-09-04T12:43:52.641Z,1.45
2022-09-04T12:49:10.472Z,1.25
2022-09-04T12:54:29.214Z,1.27
2022-09-04T12:59:52.364Z,6.90
2022-09-04T13:05:04.410Z,5.43
2022-09-04T13:10:19.558Z,4.05
2022-09-04T13:15:30.917Z,3.83
2022-09-04T13:20:45.453Z,4.07
2022-09-04T13:26:03.931Z,3.00
2022-09-04T13:31:35.460Z,6.10
2022-09-04T13:36:45.655Z,4.63
2022-09-04T13:42:10.887Z,3.63
2022-09-04T13:47:20.993Z,2.42
2022-09-04T13:52:32.438Z,2.70
2022-09-04T13:57:44.673Z,1.70
2022-09-04T14:02:57.195Z,1.98
2022-09-04T14:08:05.269Z,4.63
2022-09-04T14:13:25.629Z,1.65
2022-09-04T14:18:52.215Z,5.28
2022-09-04T14:24:04.092Z,4.55
2022-09-04T14:29:21.107Z,5.70
2022-09-04T14:34:36.242Z,3.83
2022-09-04T14:39:48.836Z,3.33
2022-09-04T14:45:14.143Z,4.05
2022-09-04T14:50:19.295Z,2.90
2022-09-04T14:55:27.397Z,2.20
2022-09-04T15:00:34.806Z,1.40
2022-09-04T15:05:48.085Z,1.60
2022-09-04T15:10:54.802Z,1.98
2022-09-04T15:16:06.633Z,1.23
2022-09-04T15:21:19.401Z,1.33
2022-09-04T15:26:29.974Z,1.60
2022-09-04T15:31:38.275Z,8.63
2022-09-04T15:36:42.527Z,6.05
2022-09-04T15:41:49.821Z,5.00
2022-09-04T15:47:02.801Z,2.78
2022-09-04T15:52:19.945Z,3.28
2022-09-04T15:57:32.994Z,25.23
2022-09-04T16:02:46.414Z,9.40
2022-09-04T16:08:03.636Z,8.23
2022-09-04T16:13:14.773Z,4.43
2022-09-04T16:18:22.541Z,3.38
2022-09-04T16:23:31.059Z,3.92
2022-09-04T16:28:39.351Z,2.22
2022-09-04T16:33:53.275Z,2.53
2022-09-04T16:39:01.168Z,1.98
2022-09-04T16:44:15.545Z,1.75
2022-09-04T16:49:25.366Z,1.80
2022-09-04T16:54:35.416Z,28.60
2022-09-04T16:59:42.898Z,17.83
2022-09-04T17:04:55.205Z,9.10
2022-09-04T17:10:04.035Z,14.10
2022-09-04T17:15:17.589Z,71.68
2022-09-04T17:21:58.338Z,40.83
2022-09-04T17:29:04.018Z,24.17
2022-09-04T17:31:29.579Z,20.70
2022-09-04T17:40:40.888Z,8.20
2022-09-04T17:42:10.687Z,4.25
2022-09-04T17:47:26.435Z,3.83
2022-09-04T17:52:34.165Z,2.30
2022-09-04T17:57:54.888Z,2.97
2022-09-04T18:03:03.842Z,4.50
2022-09-04T18:08:14.595Z,3.97
2022-09-04T18:13:36.400Z,1.52
2022-09-04T18:18:44.770Z,1.67
2022-09-04T18:23:59.206Z,1.52
2022-09-04T18:29:29.088Z,2.03
2022-09-04T18:37:19.199Z,2.75
2022-09-04T18:40:12.735Z,2.45
2022-09-04T18:50:25.140Z,2.88
2022-09-04T18:56:22.259Z,4.22
2022-09-04T19:01:32.483Z,2.40
2022-09-04T19:06:39.364Z,1.98
2022-09-04T19:11:51.454Z,1.52
2022-09-04T19:17:00.330Z,2.67
2022-09-04T19:22:09.618Z,3.08
2022-09-04T19:27:28.434Z,1.70
2022-09-04T19:32:37.235Z,31.10
2022-09-04T19:40:57.138Z,4.07
2022-09-04T19:46:00.063Z,2.22
2022-09-04T19:50:01.764Z,3.40
2022-09-04T19:54:14.738Z,2.47
2022-09-04T19:59:24.411Z,2.40
2022-09-04T20:04:33.780Z,3.50
2022-09-04T20:09:45.614Z,1.90
2022-09-04T20:14:55.326Z,3.70
2022-09-04T20:20:03.172Z,2.00
2022-09-04T20:25:27.659Z,2.35
2022-09-04T20:30:33.323Z,3.25
2022-09-04T20:35:42.447Z,2.20
2022-09-04T20:40:49.725Z,4.53
2022-09-04T20:52:44.449Z,29.23
2022-09-04T20:52:50.302Z,26.80
2022-09-04T21:01:12.549Z,20.67
2022-09-04T21:03:23.558Z,19.27
2022-09-04T21:08:29.736Z,13.75
2022-09-04T21:13:38.597Z,12.82
2022-09-04T21:19:27.554Z,11.73
2022-09-04T21:24:46.018Z,9.82
2022-09-04T21:30:01.020Z,9.00
2022-09-04T21:35:14.182Z,5.07
2022-09-04T21:40:59.044Z,3.80
2022-09-04T21:46:14.332Z,4.18
2022-09-04T21:51:44.091Z,3.95
2022-09-04T22:02:27.076Z,3.33
2022-09-04T22:03:01.455Z,3.45
2022-09-04T22:12:14.852Z,3.08
2022-09-04T22:13:50.396Z,2.88
2022-09-04T22:19:31.105Z,2.75
2022-09-04T22:25:14.867Z,1.98
2022-09-04T22:30:19.800Z,5.65
2022-09-04T22:35:51.312Z,3.67
2022-09-04T22:41:07.202Z,2.47
2022-09-04T22:46:43.808Z,2.70
2022-09-04T22:52:13.663Z,2.08
2022-09-04T22:57:24.140Z,2.05
2022-09-04T23:03:09.151Z,2.67
2022-09-04T23:13:44.080Z,2.40
2022-09-04T23:14:18.404Z,1.73
2022-09-04T23:26:31.548Z,1.67
2022-09-04T23:26:47.352Z,1.58
2022-09-04T23:31:08.772Z,2.67
2022-09-04T23:36:38.306Z,2.33
2022-09-04T23:41:53.568Z,1.83
2022-09-04T23:47:46.497Z,2.05
2022-09-04T23:52:50.143Z,2.75
2022-09-04T23:58:21.310Z,3.00
